Time;durP1;ratioP1;P1;durP2;ratioP2;P2;SDS_P1;SDS_P2;PMS_P1;PMS_P2;Temp;Humidity;BMP_temperature;BMP_pressure;BME280_temperature;BME280_humidity;BME280_pressure;Samples;Min_cycle;Max_cycle;Signal;HPM_P1;HPM_P2
2022/12/23 00:00:54;;;;;;;157.27;40.90;;;;;;;;;;5093445;28;20900;-80
2022/12/23 00:03:20;;;;;;;141.93;39.97;;;;;;;;;;5077037;28;20432;-79
2022/12/23 00:05:47;;;;;;;165.82;41.85;;;;;;;;;;5091716;28;20429;-79
2022/12/23 00:08:13;;;;;;;204.43;45.20;;;;;;;;;;5093200;28;20857;-79
2022/12/23 00:10:39;;;;;;;133.32;39.85;;;;;;;;;;5092768;28;20752;-79
2022/12/23 00:15:50;;;;;;;158.18;41.95;;;;;;;;;;5093517;28;20914;-79
2022/12/23 00:18:16;;;;;;;199.20;44.38;;;;;;;;;;5092661;28;20408;-78
2022/12/23 00:20:42;;;;;;;136.38;40.85;;;;;;;;;;5092491;28;20420;-79
2022/12/23 00:23:09;;;;;;;150.93;40.67;;;;;;;;;;5091885;28;20451;-79
2022/12/23 00:25:39;;;;;;;121.50;37.95;;;;;;;;;;5091097;28;20903;-79
2022/12/23 00:28:15;;;;;;;142.60;39.85;;;;;;;;;;5090612;28;20907;-79
2022/12/23 00:30:49;;;;;;;124.15;38.05;;;;;;;;;;5091788;28;20764;-79
2022/12/23 00:33:15;;;;;;;122.38;37.65;;;;;;;;;;5076977;28;20408;-79
2022/12/23 00:35:42;;;;;;;140.95;39.80;;;;;;;;;;5093174;28;20392;-80
2022/12/23 00:38:08;;;;;;;163.70;41.15;;;;;;;;;;5073214;28;20780;-80
2022/12/23 00:43:19;;;;;;;122.38;37.55;;;;;;;;;;5092717;28;20416;-80
2022/12/23 00:45:45;;;;;;;125.87;37.53;;;;;;;;;;5082700;28;20421;-80
2022/12/23 00:50:56;;;;;;;104.28;35.35;;;;;;;;;;5077727;28;20483;-80
2022/12/23 00:53:22;;;;;;;126.13;37.75;;;;;;;;;;5089097;28;20420;-81
2022/12/23 00:55:52;;;;;;;135.50;38.57;;;;;;;;;;5073555;28;20500;-82
2022/12/23 00:58:19;;;;;;;113.35;37.08;;;;;;;;;;5077636;28;20423;-82
2022/12/23 01:06:15;;;;;;;92.22;33.17;;;;;;;;;;5092755;28;20414;-82
2022/12/23 01:08:41;;;;;;;104.15;35.05;;;;;;;;;;5080411;28;20417;-82
2022/12/23 01:11:09;;;;;;;118.85;37.28;;;;;;;;;;5087487;28;20414;-82
2022/12/23 01:13:36;;;;;;;120.23;36.80;;;;;;;;;;5077066;28;20459;-82
2022/12/23 01:16:03;;;;;;;98.75;34.38;;;;;;;;;;5088328;28;20424;-82
2022/12/23 01:18:29;;;;;;;113.80;34.60;;;;;;;;;;5097014;28;20404;-82
2022/12/23 01:20:55;;;;;;;166.48;39.70;;;;;;;;;;5089889;28;20789;-82
2022/12/23 01:23:21;;;;;;;155.18;39.88;;;;;;;;;;5083131;28;20412;-81
2022/12/23 01:25:55;;;;;;;179.77;42.17;;;;;;;;;;5097274;28;20438;-81
2022/12/23 01:28:21;;;;;;;208.98;44.55;;;;;;;;;;5096270;28;20816;-82
2022/12/23 01:30:47;;;;;;;238.40;48.47;;;;;;;;;;5092387;28;20432;-82
2022/12/23 01:33:14;;;;;;;150.35;41.35;;;;;;;;;;5078832;28;20919;-82
2022/12/23 01:35:40;;;;;;;200.48;45.03;;;;;;;;;;5096720;28;20789;-82
2022/12/23 01:38:06;;;;;;;184.13;44.72;;;;;;;;;;5076383;28;20400;-83
2022/12/23 01:40:36;;;;;;;217.07;45.65;;;;;;;;;;5095153;28;20518;-82
2022/12/23 01:43:07;;;;;;;222.70;46.28;;;;;;;;;;5101067;27;20503;-81
2022/12/23 01:45:36;;;;;;;219.30;47.35;;;;;;;;;;5077532;28;20386;-82
2022/12/23 01:48:11;;;;;;;220.20;48.20;;;;;;;;;;5089921;28;20415;-82
2022/12/23 01:50:44;;;;;;;257.77;50.00;;;;;;;;;;5090345;28;20482;-81
2022/12/23 01:53:22;;;;;;;259.00;49.40;;;;;;;;;;5077056;28;20415;-81
2022/12/23 01:55:48;;;;;;;231.95;46.45;;;;;;;;;;5094882;28;20415;-82
2022/12/23 01:58:16;;;;;;;206.40;45.03;;;;;;;;;;5082855;28;20553;-82
2022/12/23 02:03:43;;;;;;;200.15;45.78;;;;;;;;;;5075870;28;20413;-82
2022/12/23 02:11:46;;;;;;;197.25;44.40;;;;;;;;;;5094441;28;20473;-82
2022/12/23 02:17:08;;;;;;;184.55;42.88;;;;;;;;;;5095959;28;20430;-82
2022/12/23 02:19:44;;;;;;;187.43;43.33;;;;;;;;;;5077050;28;20920;-82
2022/12/23 02:22:21;;;;;;;197.27;42.97;;;;;;;;;;5062819;28;20410;-82
2022/12/23 02:25:03;;;;;;;181.65;42.08;;;;;;;;;;5071655;28;20885;-82
2022/12/23 02:27:38;;;;;;;203.73;42.73;;;;;;;;;;5063347;28;21012;-83
2022/12/23 02:30:25;;;;;;;190.25;42.63;;;7.40;99.90;;;;;;5093346;28;20424;-82
2022/12/23 02:33:10;;;;;;;179.27;42.30;;;;;;;;;;5091464;28;20444;-82
2022/12/23 02:35:39;;;;;;;208.95;44.33;;;;;;;;;;5095392;28;20400;-80
2022/12/23 02:38:24;;;;;;;209.27;43.78;;;;;;;;;;5094346;28;20441;-81
2022/12/23 02:40:53;;;;;;;203.32;43.28;;;;;;;;;;5086001;28;20431;-81
2022/12/23 02:43:38;;;;;;;221.55;43.67;;;;;;;;;;5090568;28;20423;-81
2022/12/23 02:46:12;;;;;;;237.90;46.40;;;;;;;;;;5076829;27;20428;-81
2022/12/23 02:48:43;;;;;;;232.63;45.75;;;;;;;;;;5088467;28;20420;-81
2022/12/23 02:51:12;;;;;;;233.40;46.78;;;;;;;;;;5084961;28;20424;-81
2022/12/23 02:53:41;;;;;;;240.40;45.60;;;;;;;;;;5094543;28;20465;-81
2022/12/23 02:56:09;;;;;;;281.48;48.20;;;7.80;99.90;;;;;;5095300;28;20422;-81
2022/12/23 02:58:41;;;;;;;307.35;50.88;;;;;;;;;;5094453;28;20446;-81
2022/12/23 03:01:07;;;;;;;312.80;51.17;;;;;;;;;;5077276;28;20400;-81
2022/12/23 03:03:35;;;;;;;402.25;55.40;;;7.60;99.90;;;;;;5094583;28;20439;-81
2022/12/23 03:06:01;;;;;;;402.80;55.78;;;;;;;;;;5076786;28;20445;-81
2022/12/23 03:08:34;;;;;;;358.23;53.47;;;;;;;;;;5095232;28;20768;-82
2022/12/23 03:11:07;;;;;;;348.88;52.25;;;;;;;;;;5082686;28;20421;-81
2022/12/23 03:13:45;;;;;;;322.95;49.88;;;;;;;;;;5059497;28;20398;-82
2022/12/23 03:16:32;;;;;;;316.92;50.78;;;;;;;;;;5075134;28;20394;-82
2022/12/23 03:18:58;;;;;;;340.20;52.72;;;;;;;;;;5069679;28;20410;-82
2022/12/23 03:21:59;;;;;;;278.25;49.30;;;;;;;;;;5076475;28;20414;-82
2022/12/23 03:24:36;;;;;;;284.45;50.28;;;;;;;;;;5027717;28;20425;-82
2022/12/23 03:27:08;;;;;;;247.07;47.50;;;;;;;;;;5065752;28;20420;-82
2022/12/23 03:29:48;;;;;;;287.50;50.55;;;;;;;;;;5090341;28;20516;-82
2022/12/23 03:32:15;;;;;;;286.00;49.20;;;;;;;;;;5091564;28;20459;-82
2022/12/23 03:34:46;;;;;;;246.23;48.03;;;;;;;;;;5077641;28;20789;-82
2022/12/23 03:37:12;;;;;;;249.88;47.58;;;;;;;;;;5077545;28;20400;-82
2022/12/23 03:39:51;;;;;;;258.10;48.42;;;;;;;;;;5093216;28;20435;-82
2022/12/23 03:42:21;;;;;;;265.37;49.10;;;;;;;;;;5087092;28;20418;-82
2022/12/23 03:44:49;;;;;;;262.20;48.05;;;;;;;;;;5093663;28;20809;-82
2022/12/23 03:47:27;;;;;;;275.05;49.13;;;;;;;;;;5077090;28;20483;-82
2022/12/23 03:49:57;;;;;;;240.77;46.08;;;;;;;;;;5086413;28;20772;-82
2022/12/23 03:52:34;;;;;;;222.98;45.25;;;;;;;;;;5087475;27;20418;-82
2022/12/23 03:55:03;;;;;;;231.10;45.03;;;;;;;;;;5091321;28;20426;-82
2022/12/23 03:57:44;;;;;;;231.82;45.85;;;;;;;;;;5093283;28;20412;-82
2022/12/23 04:00:11;;;;;;;215.93;44.58;;;;;;;;;;5093083;28;20476;-81
2022/12/23 04:02:41;;;;;;;233.02;46.28;;;;;;;;;;5093349;28;20455;-81
2022/12/23 04:05:07;;;;;;;217.40;44.55;;;;;;;;;;5074858;28;20416;-81
2022/12/23 04:07:36;;;;;;;190.00;41.15;;;;;;;;;;5092452;28;20416;-80
2022/12/23 04:10:03;;;;;;;199.77;42.23;;;;;;;;;;5073972;28;20842;-81
2022/12/23 04:12:29;;;;;;;188.63;42.03;;;;;;;;;;5088231;28;20412;-81
2022/12/23 04:14:55;;;;;;;178.52;40.22;;;;;;;;;;5063079;28;20734;-81
2022/12/23 04:17:21;;;;;;;185.53;42.07;;;;;;;;;;5075837;28;20414;-81
2022/12/23 04:19:48;;;;;;;208.25;41.97;;;;;;;;;;5087297;28;20493;-80
2022/12/23 04:22:15;;;;;;;193.73;40.50;;;;;;;;;;5073872;28;20419;-81
2022/12/23 04:24:41;;;;;;;205.43;41.47;;;;;;;;;;5092207;28;20490;-81
2022/12/23 04:27:10;;;;;;;204.77;42.65;;;;;;;;;;5074110;28;20419;-81
2022/12/23 04:29:37;;;;;;;195.63;42.03;;;;;;;;;;5093615;28;20404;-81
2022/12/23 04:32:03;;;;;;;209.93;41.83;;;;;;;;;;5076443;28;20408;-81
2022/12/23 04:34:29;;;;;;;187.17;40.77;;;;;;;;;;5075914;28;20468;-82
2022/12/23 04:36:55;;;;;;;182.88;39.58;;;;;;;;;;5091143;28;20423;-82
2022/12/23 04:39:21;;;;;;;185.77;40.55;;;;;;;;;;5090899;28;20412;-82
2022/12/23 04:41:48;;;;;;;166.20;39.47;;;;;;;;;;5093346;28;20403;-82
2022/12/23 04:44:14;;;;;;;194.18;43.25;;;;;;;;;;5089952;28;20451;-82
2022/12/23 04:46:40;;;;;;;176.25;40.58;;;;;;;;;;5092342;28;20444;-81
2022/12/23 04:49:06;;;;;;;177.53;40.63;;;;;;;;;;5076717;28;20465;-82
2022/12/23 04:51:32;;;;;;;158.55;38.22;;;;;;;;;;5073382;28;20422;-81
2022/12/23 04:53:58;;;;;;;187.07;40.92;;;;;;;;;;5113346;28;20422;-82
2022/12/23 04:56:25;;;;;;;221.35;44.53;;;;;;;;;;5091428;28;20408;-82
2022/12/23 04:58:51;;;;;;;175.05;40.30;;;;;;;;;;5074781;28;20404;-82
2022/12/23 05:01:17;;;;;;;190.37;41.00;;;;;;;;;;5091849;28;20428;-82
2022/12/23 05:03:43;;;;;;;182.57;40.17;;;;;;;;;;5074222;28;20408;-82
2022/12/23 05:06:09;;;;;;;187.10;42.85;;;;;;;;;;5086543;28;21898;-82
2022/12/23 05:08:35;;;;;;;186.73;40.97;;;;;;;;;;5074608;28;20993;-82
2022/12/23 05:11:01;;;;;;;180.27;40.00;;;;;;;;;;5091291;28;20683;-82
2022/12/23 05:13:27;;;;;;;170.07;38.80;;;;;;;;;;5076014;28;20454;-82
2022/12/23 05:15:54;;;;;;;217.13;41.65;;;;;;;;;;5075872;28;20413;-82
2022/12/23 05:18:20;;;;;;;183.00;39.72;;;;;;;;;;5091193;28;20420;-82
2022/12/23 05:20:46;;;;;;;184.25;40.47;;;;;;;;;;5092509;28;20818;-82
2022/12/23 05:23:13;;;;;;;203.73;40.33;;;;;;;;;;5091709;28;20907;-82
2022/12/23 05:25:39;;;;;;;168.13;38.67;;;;;;;;;;5093529;28;20502;-82
2022/12/23 05:28:06;;;;;;;170.23;38.08;;;;;;;;;;5095173;28;20424;-82
2022/12/23 05:30:33;;;;;;;179.02;37.42;;;;;;;;;;5094895;28;20420;-82
2022/12/23 05:32:59;;;;;;;171.40;37.47;;;;;;;;;;5094094;28;20445;-82
2022/12/23 05:35:25;;;;;;;184.45;38.88;;;;;;;;;;5096534;28;20396;-82
2022/12/23 05:37:51;;;;;;;157.37;37.67;;;;;;;;;;5074720;28;20501;-81
2022/12/23 05:40:17;;;;;;;174.80;37.22;;;;;;;;;;5091532;28;20427;-81
2022/12/23 05:42:44;;;;;;;177.68;38.75;;;;;;;;;;5078571;28;20883;-81
2022/12/23 05:45:10;;;;;;;185.15;39.53;;;;;;;;;;5087894;28;20412;-81
2022/12/23 05:47:36;;;;;;;201.70;39.33;;;;;;;;;;5082236;28;20418;-81
2022/12/23 05:50:02;;;;;;;231.00;41.70;;;;;;;;;;5083272;28;20488;-81
2022/12/23 05:52:28;;;;;;;365.85;46.97;;;;;;;;;;5089442;28;20421;-81
2022/12/23 05:54:54;;;;;;;382.90;48.03;;;;;;;;;;5094960;28;20484;-81
2022/12/23 05:57:21;;;;;;;421.23;47.65;;;;;;;;;;5096840;28;20393;-82
2022/12/23 05:59:47;;;;;;;454.75;49.53;;;;;;;;;;5096775;28;20404;-82
2022/12/23 06:02:13;;;;;;;613.45;57.17;;;;;;;;;;5077271;28;20546;-81
2022/12/23 06:04:39;;;;;;;576.63;54.35;;;;;;;;;;5074303;28;20420;-83
2022/12/23 06:07:05;;;;;;;473.73;53.13;;;;;;;;;;5064743;28;20416;-82
2022/12/23 06:09:31;;;;;;;404.75;50.30;;;;;;;;;;5091725;28;20495;-82
2022/12/23 06:11:57;;;;;;;380.23;48.00;;;;;;;;;;5095839;27;20410;-82
2022/12/23 06:14:23;;;;;;;412.75;47.35;;;;;;;;;;5092635;28;20430;-82
2022/12/23 06:16:50;;;;;;;611.73;63.37;;;;;;;;;;5082861;28;20502;-83
2022/12/23 06:19:17;;;;;;;599.10;58.60;;;;;;;;;;5079098;28;20400;-82
2022/12/23 06:21:43;;;;;;;571.90;57.30;;;;;;;;;;5079155;28;20437;-83
2022/12/23 06:24:10;;;;;;;766.67;69.72;;;;;;;;;;5092097;28;20423;-82
2022/12/23 06:26:36;;;;;;;624.33;60.58;;;;;;;;;;5091859;28;20415;-82
2022/12/23 06:29:02;;;;;;;812.38;74.35;;;;;;;;;;5092219;28;20448;-82
2022/12/23 06:31:28;;;;;;;806.35;76.20;;;;;;;;;;5095301;28;20473;-82
2022/12/23 06:33:54;;;;;;;880.17;81.88;;;;;;;;;;5094207;28;20419;-82
2022/12/23 06:36:20;;;;;;;586.13;58.87;;;;;;;;;;5093984;28;20478;-82
2022/12/23 06:38:46;;;;;;;490.67;48.95;;;;;;;;;;5094060;28;20416;-82
2022/12/23 06:41:12;;;;;;;431.75;49.55;;;;;;;;;;5094533;28;20560;-83
2022/12/23 06:43:38;;;;;;;384.93;45.93;;;;;;;;;;5094132;28;20436;-82
2022/12/23 06:46:04;;;;;;;312.63;41.47;;;;;;;;;;5092164;28;20419;-83
2022/12/23 06:48:30;;;;;;;389.48;45.15;;;;;;;;;;5093900;28;20516;-82
2022/12/23 06:50:56;;;;;;;233.18;38.22;;;;;;;;;;5093353;28;20436;-82
2022/12/23 06:53:22;;;;;;;241.30;37.40;;;;;;;;;;5071111;28;20418;-82
2022/12/23 06:55:49;;;;;;;218.07;35.13;;;;;;;;;;5093232;28;21577;-82
2022/12/23 06:58:15;;;;;;;393.33;43.13;;;;;;;;;;5089253;28;20454;-82
2022/12/23 07:00:41;;;;;;;307.60;39.63;;;;;;;;;;5094768;28;20424;-81
2022/12/23 07:03:07;;;;;;;432.08;46.03;;;;;;;;;;5093771;28;20469;-82
2022/12/23 07:05:34;;;;;;;323.70;41.03;;;;;;;;;;5094186;28;20436;-81
2022/12/23 07:08:00;;;;;;;343.58;42.92;;;;;;;;;;5094866;28;20412;-82
2022/12/23 07:10:26;;;;;;;377.63;44.83;;;;;;;;;;5090829;28;20424;-81
2022/12/23 07:12:53;;;;;;;800.92;79.65;;;;;;;;;;5074284;28;20416;-82
2022/12/23 07:15:19;;;;;;;350.83;43.70;;;;;;;;;;5092022;28;20801;-82
2022/12/23 07:17:45;;;;;;;427.43;46.80;;;;;;;;;;5094126;28;20408;-82
2022/12/23 07:20:12;;;;;;;239.77;40.05;;;;;;;;;;5094748;28;20406;-81
2022/12/23 07:22:38;;;;;;;226.67;39.00;;;;;;;;;;5075043;28;20468;-82
2022/12/23 07:25:04;;;;;;;240.43;42.08;;;;;;;;;;5079304;28;20451;-81
2022/12/23 07:27:30;;;;;;;270.27;41.20;;;;;;;;;;5084237;28;20458;-81
2022/12/23 07:29:56;;;;;;;231.60;41.35;;;;;;;;;;5093927;28;20427;-82
2022/12/23 07:32:22;;;;;;;240.18;40.25;;;;;;;;;;5063394;28;20420;-82
2022/12/23 07:34:48;;;;;;;239.33;38.63;;;;;;;;;;5073842;28;20779;-82
2022/12/23 07:37:14;;;;;;;170.30;39.03;;;;;;;;;;5074142;28;20737;-82
2022/12/23 07:39:41;;;;;;;185.00;38.67;;;;;;;;;;5077731;28;20958;-82
2022/12/23 07:42:07;;;;;;;220.15;40.28;;;;;;;;;;5083143;28;20414;-82
2022/12/23 07:44:33;;;;;;;153.45;38.33;;;;;;;;;;5086606;28;20412;-82
2022/12/23 07:47:00;;;;;;;154.98;38.03;;;;;;;;;;5056153;28;20433;-82
2022/12/23 07:49:27;;;;;;;147.10;38.08;;;;;;;;;;5083871;28;20791;-82
2022/12/23 07:51:53;;;;;;;166.40;37.38;;;;;;;;;;5067488;28;21962;-82
2022/12/23 07:54:19;;;;;;;146.10;34.88;;;;;;;;;;5069782;27;20423;-81
2022/12/23 07:56:45;;;;;;;143.57;34.42;;;;;;;;;;5087512;28;20548;-82
2022/12/23 07:59:11;;;;;;;158.05;35.08;;;;;;;;;;5091749;28;20424;-82
2022/12/23 08:01:37;;;;;;;143.17;34.07;;;;;;;;;;5092081;28;20471;-82
2022/12/23 08:04:03;;;;;;;151.93;33.63;;;;;;;;;;5089841;28;20947;-82
2022/12/23 08:06:29;;;;;;;158.82;34.35;;;;;;;;;;5088222;28;20419;-82
2022/12/23 08:08:55;;;;;;;130.13;32.38;;;;;;;;;;5088502;28;20461;-82
2022/12/23 08:11:21;;;;;;;136.43;33.58;;;;;;;;;;5067259;28;20771;-82
2022/12/23 08:13:48;;;;;;;134.47;32.13;;;;;;;;;;5060562;28;21027;-82
2022/12/23 08:16:14;;;;;;;120.88;32.03;;;;;;;;;;5056670;28;20418;-81
2022/12/23 08:18:41;;;;;;;309.05;38.50;;;;;;;;;;5078671;28;20412;-82
2022/12/23 08:21:12;;;;;;;250.30;36.17;;;;;;;;;;5110638;28;20392;-82
2022/12/23 08:23:38;;;;;;;289.27;39.97;;;;;;;;;;5093816;28;20748;-82
2022/12/23 08:26:05;;;;;;;183.10;34.33;;;;;;;;;;5069149;28;20469;-82
2022/12/23 08:28:32;;;;;;;224.55;37.33;;;;;;;;;;5087782;28;20430;-83
2022/12/23 08:31:30;;;;;;;401.37;44.93;;;7.20;99.90;;;;;;5093643;28;20494;-83
2022/12/23 08:33:57;;;;;;;490.35;51.17;;;;;;;;;;5041456;28;20481;-83
2022/12/23 08:36:33;;;;;;;293.27;38.83;;;;;;;;;;5087507;28;20411;-83
2022/12/23 08:39:01;;;;;;;292.98;41.25;;;;;;;;;;5079586;28;20983;-82
2022/12/23 08:41:31;;;;;;;406.90;45.67;;;;;;;;;;5086612;28;20407;-83
2022/12/23 08:43:58;;;;;;;419.00;45.63;;;;;;;;;;5089647;28;20467;-83
2022/12/23 08:46:24;;;;;;;513.20;50.17;;;;;;;;;;5091815;28;20416;-83
2022/12/23 08:48:50;;;;;;;442.58;44.83;;;;;;;;;;5088718;28;20444;-83
2022/12/23 08:51:18;;;;;;;350.20;43.00;;;;;;;;;;5055397;28;20422;-83
2022/12/23 08:53:44;;;;;;;269.52;39.08;;;;;;;;;;5091622;28;20451;-82
2022/12/23 08:56:15;;;;;;;303.30;40.53;;;;;;;;;;5097395;28;20507;-84
2022/12/23 08:58:42;;;;;;;286.35;41.28;;;;;;;;;;5093006;28;20418;-83
2022/12/23 09:01:10;;;;;;;418.47;50.13;;;;;;;;;;5096168;28;20415;-83
2022/12/23 09:03:36;;;;;;;272.52;39.08;;;;;;;;;;5104933;28;20469;-84
2022/12/23 09:06:08;;;;;;;282.27;42.70;;;7.80;99.90;;;;;;5095614;28;20499;-82
2022/12/23 09:08:34;;;;;;;157.13;33.35;;;;;;;;;;5084320;28;20423;-82
2022/12/23 09:11:01;;;;;;;130.90;32.25;;;;;;;;;;5090869;28;20416;-83
2022/12/23 09:13:27;;;;;;;119.80;30.05;;;;;;;;;;5077282;28;20423;-83
2022/12/23 09:15:53;;;;;;;180.77;34.72;;;;;;;;;;5090887;28;20424;-83
2022/12/23 09:18:20;;;;;;;102.47;29.70;;;;;;;;;;5087639;28;20419;-84
2022/12/23 09:20:46;;;;;;;155.70;33.08;;;;;;;;;;5075827;28;20419;-83
2022/12/23 09:23:12;;;;;;;221.55;39.30;;;;;;;;;;5089029;28;20423;-82
2022/12/23 09:25:38;;;;;;;147.02;34.55;;;;;;;;;;5092251;28;21340;-83
2022/12/23 09:28:04;;;;;;;289.15;43.72;;;;;;;;;;5079377;28;20495;-82
2022/12/23 09:30:30;;;;;;;142.55;36.15;;;;;;;;;;5088582;28;20430;-83
2022/12/23 09:32:56;;;;;;;136.50;33.15;;;;;;;;;;5081699;28;20743;-83
2022/12/23 09:35:22;;;;;;;353.50;47.50;;;;;;;;;;5078249;28;20412;-85
2022/12/23 09:37:48;;;;;;;339.35;41.50;;;;;;;;;;5086816;28;20457;-85
2022/12/23 09:40:15;;;;;;;256.65;35.85;;;;;;;;;;5089265;28;20936;-83
2022/12/23 09:43:06;;;;;;;361.77;49.47;;;;;;;;;;5087474;28;20421;-84
2022/12/23 09:46:10;;;;;;;116.68;30.33;;;7.70;99.90;;;;;;5082519;28;20425;-84
2022/12/23 09:49:01;;;;;;;114.05;29.73;;;7.60;99.90;;;;;;4986957;28;20485;-84
2022/12/23 09:51:28;;;;;;;108.22;29.20;;;;;;;;;;5008465;28;20431;-84
2022/12/23 09:54:03;;;;;;;107.80;30.13;;;;;;;;;;5052303;28;20414;-83
2022/12/23 09:56:47;;;;;;;95.60;27.67;;;;;;;;;;5067183;28;20419;-84
2022/12/23 09:59:22;;;;;;;236.43;36.40;;;;;;;;;;5084647;28;20427;-84
2022/12/23 10:02:06;;;;;;;94.78;28.13;;;7.80;99.90;;;;;;5084676;28;20422;-84
2022/12/23 10:04:52;;;;;;;86.03;27.55;;;;;;;;;;5101517;28;20419;-83
2022/12/23 10:07:26;;;;;;;89.15;27.88;;;;;;;;;;5062762;28;20470;-84
2022/12/23 10:09:53;;;;;;;83.32;27.48;;;;;;;;;;5083926;28;20421;-83
2022/12/23 10:12:25;;;;;;;265.17;39.33;;;;;;;;;;5066514;28;20462;-83
2022/12/23 10:14:52;;;;;;;133.30;29.45;;;;;;;;;;5087922;28;20446;-84
2022/12/23 10:17:27;;;;;;;89.57;27.75;;;;;;;;;;5086630;28;20422;-83
2022/12/23 10:19:54;;;;;;;79.53;27.60;;;;;;;;;;5073440;28;20424;-82
2022/12/23 10:22:24;;;;;;;82.35;27.23;;;;;;;;;;5070039;28;20421;-83
2022/12/23 10:24:50;;;;;;;88.30;28.05;;;;;;;;;;5090197;28;20410;-83
2022/12/23 10:27:22;;;;;;;92.60;27.58;;;;;;;;;;5085151;28;20503;-83
2022/12/23 10:29:48;;;;;;;82.05;27.25;;;;;;;;;;5086364;28;20418;-84
2022/12/23 10:32:46;;;;;;;87.25;27.65;;;;;;;;;;5060665;28;20477;-83
2022/12/23 10:35:31;;;;;;;77.90;25.85;;;;;;;;;;5035736;28;20466;-83
2022/12/23 10:38:03;;;;;;;91.85;27.33;;;;;;;;;;5086638;28;20450;-83
2022/12/23 10:40:34;;;;;;;80.60;25.02;;;;;;;;;;5086639;28;20767;-83
2022/12/23 10:43:25;;;;;;;75.95;24.30;;;7.60;99.90;;;;;;5085563;28;20420;-84
2022/12/23 10:45:57;;;;;;;79.63;25.27;;;;;;;;;;5087321;28;20509;-83
2022/12/23 10:48:32;;;;;;;77.75;25.50;;;;;;;;;;5084234;28;20430;-82
2022/12/23 10:51:10;;;;;;;69.65;24.58;;;;;;;;;;5064423;28;20434;-83
2022/12/23 10:53:42;;;;;;;61.85;22.95;;;;;;;;;;5070290;28;20494;-83
2022/12/23 10:56:08;;;;;;;68.22;23.98;;;;;;;;;;5086223;28;20908;-83
2022/12/23 10:58:40;;;;;;;72.32;24.30;;;;;;;;;;5085824;28;20428;-82
2022/12/23 11:01:07;;;;;;;73.80;27.45;;;;;;;;;;5074128;28;20420;-83
2022/12/23 11:03:37;;;;;;;76.13;26.45;;;;;;;;;;5081249;28;20421;-83
2022/12/23 11:06:05;;;;;;;81.20;27.80;;;;;;;;;;5066721;28;20428;-82
2022/12/23 11:08:31;;;;;;;76.60;27.60;;;;;;;;;;5081600;28;21221;-83
2022/12/23 11:11:00;;;;;;;73.05;24.67;;;7.20;99.90;;;;;;5076816;28;20419;-83
2022/12/23 11:13:37;;;;;;;71.88;24.50;;;;;;;;;;5086220;28;20414;-82
2022/12/23 11:16:14;;;;;;;144.30;27.40;;;;;;;;;;5065509;28;20452;-82
2022/12/23 11:18:51;;;;;;;79.60;28.45;;;;;;;;;;5089368;28;20489;-82
2022/12/23 11:21:17;;;;;;;79.97;27.52;;;;;;;;;;5083933;28;20422;-82
2022/12/23 11:23:43;;;;;;;89.25;26.67;;;;;;;;;;5091089;28;20413;-82
2022/12/23 11:26:12;;;;;;;81.03;26.88;;;;;;;;;;5071990;28;20446;-82
2022/12/23 11:28:47;;;;;;;82.50;27.58;;;7.30;99.90;;;;;;5090315;28;20421;-82
2022/12/23 11:31:15;;;;;;;61.28;21.50;;;;;;;;;;5070519;28;20425;-82
2022/12/23 11:33:58;;;;;;;151.30;27.98;;;;;;;;;;5071883;28;20403;-81
2022/12/23 11:36:26;;;;;;;74.45;23.63;;;;;;;;;;5080474;28;20809;-82
2022/12/23 11:39:10;;;;;;;71.70;23.77;;;8.00;99.90;;;;;;5086162;28;20449;-83
2022/12/23 11:41:42;;;;;;;72.35;23.33;;;7.80;99.90;;;;;;5085284;28;20414;-82
2022/12/23 11:44:22;;;;;;;69.17;22.70;;;7.70;99.90;;;;;;5074818;28;20985;-82
2022/12/23 11:46:49;;;;;;;59.42;20.38;;;;;;;;;;5078208;28;20422;-82
2022/12/23 11:49:32;;;;;;;56.42;19.65;;;7.60;99.90;;;;;;5089203;28;20466;-82
2022/12/23 11:52:13;;;;;;;57.33;19.90;;;;;;;;;;5070390;28;21328;-82
2022/12/23 11:54:39;;;;;;;215.95;29.40;;;;;;;;;;5068918;28;20761;-82
2022/12/23 11:57:14;;;;;;;60.65;20.92;;;7.60;99.90;;;;;;5085673;28;20417;-82
2022/12/23 11:59:47;;;;;;;52.58;20.92;;;7.50;99.90;;;;;;5065541;28;20419;-83
2022/12/23 12:02:21;;;;;;;59.30;20.60;;;;;;;;;;5083781;28;20414;-81
2022/12/23 12:05:06;;;;;;;59.83;20.70;;;;;;;;;;5084613;28;20425;-82
2022/12/23 12:07:32;;;;;;;61.30;21.25;;;;;;;;;;5074996;28;20419;-83
2022/12/23 12:09:59;;;;;;;57.63;21.05;;;;;;;;;;5083662;28;20445;-82
2022/12/23 12:12:26;;;;;;;96.13;22.05;;;;;;;;;;5088984;28;20409;-82
2022/12/23 12:14:54;;;;;;;53.67;20.73;;;7.90;99.90;;;;;;5074139;28;20416;-82
2022/12/23 12:17:36;;;;;;;58.70;21.40;;;;;;;;;;5088302;28;20429;-83
2022/12/23 12:20:11;;;;;;;57.00;21.77;;;;;;;;;;5088249;28;20417;-82
2022/12/23 12:22:40;;;;;;;53.20;19.83;;;;;;;;;;5083663;28;20417;-83
2022/12/23 12:25:35;;;;;;;50.97;19.48;;;7.60;99.90;;;;;;5080442;28;20424;-83
2022/12/23 12:28:06;;;;;;;52.73;19.43;;;;;;;;;;5083107;28;20421;-83
2022/12/23 12:30:36;;;;;;;119.90;23.20;;;;;;;;;;5087984;28;20517;-83
2022/12/23 12:33:05;;;;;;;45.60;18.13;;;;;;;;;;5091674;28;20551;-83
2022/12/23 12:35:41;;;;;;;41.17;17.65;;;;;;;;;;5088555;28;20436;-82
2022/12/23 12:38:17;;;;;;;49.58;21.17;;;;;;;;;;5087802;28;20425;-81
2022/12/23 12:41:10;;;;;;;42.17;18.25;;;;;;;;;;5087047;28;20738;-81
2022/12/23 12:43:41;;;;;;;39.47;16.67;;;;;;;;;;5061212;28;20771;-80
2022/12/23 12:46:07;;;;;;;38.83;17.85;;;;;;;;;;5090783;28;20498;-81
2022/12/23 12:48:58;;;;;;;43.00;17.50;;;8.20;99.90;;;;;;5083193;28;20440;-82
2022/12/23 12:51:39;;;;;;;40.33;17.75;;;;;;;;;;5086330;28;20481;-81
2022/12/23 12:54:12;;;;;;;38.53;17.17;;;;;;;;;;5086697;28;20411;-81
2022/12/23 12:56:46;;;;;;;35.92;15.65;;;;;;;;;;5075084;28;20445;-81
2022/12/23 12:59:19;;;;;;;34.57;15.60;;;;;;;;;;5091360;28;20496;-82
2022/12/23 13:02:04;;;;;;;37.55;17.08;;;8.20;99.90;;;;;;5060061;28;20422;-81
2022/12/23 13:04:33;;;;;;;39.23;16.80;;;;;;;;;;5083867;28;21112;-81
2022/12/23 13:07:36;;;;;;;40.55;17.10;;;;;;;;;;5085927;28;20465;-82
2022/12/23 13:10:21;;;;;;;101.00;20.17;;;;;;;;;;5019446;28;21106;-82
2022/12/23 13:13:04;;;;;;;36.17;15.90;;;;;;;;;;5085966;28;20577;-81
2022/12/23 13:15:46;;;;;;;34.13;15.85;;;8.20;99.90;;;;;;5092785;28;20402;-81
2022/12/23 13:18:30;;;;;;;34.00;17.38;;;;;;;;;;5087958;28;20422;-81
2022/12/23 13:21:15;;;;;;;35.53;17.30;;;;;;;;;;5099358;28;20446;-81
2022/12/23 13:23:41;;;;;;;32.42;16.42;;;;;;;;;;5091468;28;20418;-81
2022/12/23 13:26:19;;;;;;;35.70;17.60;;;;;;;;;;5075280;28;20925;-81
2022/12/23 13:29:16;;;;;;;39.20;17.55;;;8.00;99.90;;;;;;5090426;28;20422;-82
2022/12/23 13:32:02;;;;;;;35.20;17.15;;;;;;;;;;5092031;28;20440;-83
2022/12/23 13:34:51;;;;;;;41.22;18.88;;;;;;;;;;5091942;28;20453;-82
2022/12/23 13:37:32;;;;;;;39.28;19.52;;;;;;;;;;5093920;28;20399;-82
2022/12/23 13:39:58;;;;;;;39.20;18.37;;;;;;;;;;5092638;28;20414;-83
2022/12/23 13:42:32;;;;;;;38.42;19.00;;;;;;;;;;5092335;28;20410;-83
2022/12/23 13:44:58;;;;;;;42.30;18.38;;;7.70;99.90;;;;;;5085369;28;20412;-82
2022/12/23 13:47:45;;;;;;;35.20;16.42;;;;;;;;;;5075582;28;20413;-82
2022/12/23 13:50:26;;;;;;;49.17;16.33;;;;;;;;;;5089993;28;20414;-82
2022/12/23 13:53:08;;;;;;;44.20;16.83;;;8.00;99.90;;;;;;5092230;27;20417;-82
2022/12/23 13:55:51;;;;;;;31.92;15.57;;;;;;;;;;5105617;28;20413;-82
2022/12/23 13:58:19;;;;;;;36.58;18.42;;;;;;;;;;5091381;28;20803;-83
2022/12/23 14:00:45;;;;;;;36.97;19.45;;;;;;;;;;5095672;28;20549;-82
2022/12/23 14:03:22;;;;;;;34.15;16.95;;;;;;;;;;5087881;28;20425;-81
2022/12/23 14:05:51;;;;;;;32.47;15.50;;;;;;;;;;5061634;28;20428;-82
2022/12/23 14:08:26;;;;;;;28.27;14.75;;;;;;;;;;5094975;28;20454;-81
2022/12/23 14:11:10;;;;;;;33.97;17.20;;;;;;;;;;5095375;28;20419;-81
2022/12/23 14:13:45;;;;;;;35.25;19.38;;;;;;;;;;5062358;28;20394;-82
2022/12/23 14:16:20;;;;;;;29.45;14.85;;;;;;;;;;5089254;28;20446;-80
2022/12/23 14:18:54;;;;;;;34.97;16.60;;;;;;;;;;5078330;28;20813;-82
2022/12/23 14:21:42;;;;;;;33.13;15.00;;;7.50;99.90;;;;;;5092936;28;20416;-80
2022/12/23 14:24:26;;;;;;;34.53;17.42;;;;;;;;;;5098769;28;20392;-81
2022/12/23 14:27:23;;;;;;;28.77;14.43;;;7.50;99.90;;;;;;5077125;28;20504;-81
2022/12/23 14:30:07;;;;;;;31.95;15.10;;;;;;;;;;5087948;28;20947;-74
2022/12/23 14:32:45;;;;;;;31.77;14.75;;;;;;;;;;5075064;28;20427;-74
2022/12/23 14:35:15;;;;;;;30.85;14.23;;;;;;;;;;5091264;28;20408;-75
2022/12/23 14:37:41;;;;;;;33.17;15.00;;;;;;;;;;5079340;28;20412;-75
2022/12/23 14:40:38;;;;;;;30.75;14.73;;;7.40;99.90;;;;;;5091578;28;20420;-75
2022/12/23 14:43:25;;;;;;;37.40;18.25;;;;;;;;;;5078695;28;20896;-75
2022/12/23 14:45:55;;;;;;;37.17;18.85;;;;;;;;;;5073522;28;20455;-76